Time;durP1;ratioP1;P1;durP2;ratioP2;P2;SDS_P1;SDS_P2;PMS_P1;PMS_P2;Temp;Humidity;BMP_temperature;BMP_pressure;BME280_temperature;BME280_humidity;BME280_pressure;Samples;Min_cycle;Max_cycle;Signal;HPM_P1;HPM_P2
2021/08/14 00:01:15;;;;;;;9.97;8.97;;;24.40;96.90;;;;;;5107805;28;20848;-65
2021/08/14 00:03:42;;;;;;;9.27;8.57;;;24.40;96.90;;;;;;5106571;28;20521;-65
2021/08/14 00:06:09;;;;;;;7.50;6.90;;;24.30;96.80;;;;;;5115300;28;20848;-64
2021/08/14 00:08:35;;;;;;;7.50;6.80;;;24.30;96.70;;;;;;5114247;27;20468;-64
2021/08/14 00:11:02;;;;;;;13.73;12.17;;;24.20;96.70;;;;;;5102639;28;20717;-64
2021/08/14 00:13:28;;;;;;;20.33;18.23;;;24.20;96.80;;;;;;5114937;28;20864;-64
2021/08/14 00:15:56;;;;;;;13.10;11.90;;;24.20;97.00;;;;;;5111561;27;20468;-63
2021/08/14 00:18:23;;;;;;;18.33;16.50;;;24.10;97.30;;;;;;5101924;28;20480;-64
2021/08/14 00:20:50;;;;;;;22.53;20.30;;;24.10;97.00;;;;;;5110037;28;20526;-64
2021/08/14 00:23:16;;;;;;;16.77;15.30;;;24.00;97.00;;;;;;5107467;27;20453;-64
2021/08/14 00:25:43;;;;;;;13.97;12.47;;;24.10;96.90;;;;;;5108447;27;20460;-64
2021/08/14 00:28:09;;;;;;;15.80;14.30;;;24.00;96.60;;;;;;5108488;27;20502;-64
2021/08/14 00:30:36;;;;;;;11.20;10.20;;;24.00;96.50;;;;;;5113587;27;20494;-64
2021/08/14 00:33:04;;;;;;;8.97;8.03;;;24.00;96.30;;;;;;5108064;28;20530;-64
2021/08/14 00:35:31;;;;;;;10.23;9.23;;;23.90;96.10;;;;;;5103020;28;20525;-64
2021/08/14 00:37:57;;;;;;;8.10;7.40;;;23.90;96.00;;;;;;5109467;28;20469;-64
2021/08/14 00:40:24;;;;;;;6.70;6.20;;;23.90;95.80;;;;;;5114204;27;20963;-64
2021/08/14 00:42:51;;;;;;;6.73;6.13;;;23.90;95.80;;;;;;5115033;28;20537;-64
2021/08/14 00:45:17;;;;;;;6.37;5.87;;;23.80;95.60;;;;;;5115084;28;21107;-64
2021/08/14 00:47:44;;;;;;;6.30;5.80;;;23.80;95.70;;;;;;5107918;27;20518;-64
2021/08/14 00:50:12;;;;;;;5.80;5.30;;;23.70;95.60;;;;;;5104274;27;20848;-64
2021/08/14 00:52:39;;;;;;;7.80;7.10;;;23.70;95.60;;;;;;5104298;27;20534;-64
2021/08/14 00:55:07;;;;;;;7.10;6.60;;;23.70;95.60;;;;;;5104866;28;20472;-64
2021/08/14 00:57:33;;;;;;;6.80;6.20;;;23.70;95.70;;;;;;5117098;27;20842;-64
2021/08/14 01:00:00;;;;;;;8.80;8.00;;;23.60;95.60;;;;;;5102541;28;20473;-64
2021/08/14 01:02:27;;;;;;;6.70;6.10;;;23.60;95.90;;;;;;5111484;28;20464;-65
2021/08/14 01:04:53;;;;;;;7.23;6.53;;;23.50;95.80;;;;;;5107435;28;20465;-65
2021/08/14 01:07:21;;;;;;;6.83;6.23;;;23.50;95.80;;;;;;5095982;28;20465;-65
2021/08/14 01:09:49;;;;;;;5.90;5.40;;;23.50;95.70;;;;;;5104548;28;21229;-65
2021/08/14 01:12:17;;;;;;;6.73;6.13;;;23.50;95.80;;;;;;5106338;28;20526;-64
2021/08/14 01:14:44;;;;;;;6.33;5.73;;;23.40;95.70;;;;;;5111651;27;20457;-64
2021/08/14 01:17:11;;;;;;;5.70;5.17;;;23.30;95.80;;;;;;5113013;28;20526;-64
2021/08/14 01:19:37;;;;;;;5.70;5.17;;;23.30;95.90;;;;;;5111662;27;20468;-65
2021/08/14 01:22:09;;;;;;;7.97;7.27;;;23.30;96.00;;;;;;5107216;27;20476;-65
2021/08/14 01:24:37;;;;;;;6.93;6.30;;;23.30;96.10;;;;;;5111353;28;20469;-65
2021/08/14 01:27:07;;;;;;;7.00;6.30;;;23.20;96.20;;;;;;5113440;28;20460;-64
2021/08/14 01:29:34;;;;;;;9.60;7.30;;;23.10;96.30;;;;;;5099867;28;20466;-64
2021/08/14 01:32:01;;;;;;;9.47;8.50;;;23.10;96.50;;;;;;5113417;28;20799;-64
2021/08/14 01:34:28;;;;;;;12.03;7.93;;;23.00;96.60;;;;;;5103549;27;20476;-65
2021/08/14 01:36:55;;;;;;;12.90;8.10;;;23.00;96.70;;;;;;5107333;28;20533;-64
2021/08/14 01:39:22;;;;;;;8.37;7.20;;;22.90;96.80;;;;;;5107532;28;20469;-64
2021/08/14 01:41:56;;;;;;;10.93;9.00;;;22.90;96.90;;;;;;5110370;27;20850;-64
2021/08/14 01:44:25;;;;;;;13.00;9.50;;;22.90;97.00;;;;;;5113980;27;20460;-64
2021/08/14 01:46:52;;;;;;;9.37;8.37;;;22.80;97.10;;;;;;5109637;28;20461;-64
2021/08/14 01:49:19;;;;;;;15.30;10.77;;;22.80;97.20;;;;;;5102996;27;20462;-64
2021/08/14 01:51:45;;;;;;;13.33;11.13;;;22.70;97.20;;;;;;5108679;27;20457;-65
2021/08/14 01:54:13;;;;;;;10.40;8.17;;;22.70;97.30;;;;;;5105373;28;20611;-64
2021/08/14 01:56:40;;;;;;;7.83;6.67;;;22.70;97.30;;;;;;5105455;28;20521;-64
2021/08/14 01:59:07;;;;;;;8.43;7.30;;;22.60;97.30;;;;;;5107593;27;20868;-64
2021/08/14 02:01:35;;;;;;;10.83;8.03;;;22.60;97.40;;;;;;5108803;28;20468;-65
2021/08/14 02:04:02;;;;;;;10.20;7.07;;;22.60;97.60;;;;;;5113484;28;20522;-64
2021/08/14 02:06:29;;;;;;;9.20;7.10;;;22.50;97.50;;;;;;5103689;28;20456;-64
2021/08/14 02:08:57;;;;;;;6.80;6.20;;;22.50;97.60;;;;;;5113216;28;20981;-64
2021/08/14 02:11:25;;;;;;;7.63;7.00;;;22.50;97.70;;;;;;5113520;28;20460;-64
2021/08/14 02:13:53;;;;;;;7.63;6.93;;;22.40;97.80;;;;;;5108570;28;20836;-64
2021/08/14 02:16:21;;;;;;;7.10;6.40;;;22.40;97.90;;;;;;5103974;28;20462;-65
2021/08/14 02:18:49;;;;;;;7.40;6.60;;;22.30;98.00;;;;;;5110966;27;20518;-64
2021/08/14 02:21:15;;;;;;;9.43;7.30;;;22.30;98.10;;;;;;5105792;27;20453;-65
2021/08/14 02:23:43;;;;;;;8.40;7.57;;;22.30;98.20;;;;;;5109973;28;20545;-64
2021/08/14 02:26:10;;;;;;;9.03;6.90;;;22.30;98.30;;;;;;5111954;28;20844;-64
2021/08/14 02:28:36;;;;;;;9.40;7.40;;;22.20;98.30;;;;;;5100398;28;20846;-65
2021/08/14 02:31:04;;;;;;;8.40;6.10;;;22.20;98.30;;;;;;5107556;28;20456;-64
2021/08/14 02:33:32;;;;;;;7.43;6.73;;;22.20;98.40;;;;;;5108178;28;20462;-64
2021/08/14 02:36:01;;;;;;;11.23;7.90;;;22.20;98.50;;;;;;5104116;28;20453;-64
2021/08/14 02:38:27;;;;;;;8.07;7.00;;;22.20;98.50;;;;;;5105055;28;20477;-65
2021/08/14 02:40:54;;;;;;;10.83;7.43;;;22.20;98.50;;;;;;5107719;27;20468;-65
2021/08/14 02:43:21;;;;;;;6.80;5.70;;;22.20;98.50;;;;;;5110186;28;20465;-64
2021/08/14 02:45:48;;;;;;;7.10;6.37;;;22.20;98.50;;;;;;5111990;28;20468;-64
2021/08/14 02:48:16;;;;;;;6.63;5.90;;;22.20;98.60;;;;;;5110401;28;21011;-64
2021/08/14 02:50:43;;;;;;;5.73;5.23;;;22.20;98.50;;;;;;5105178;27;20526;-64
2021/08/14 02:53:11;;;;;;;5.93;5.40;;;22.10;98.50;;;;;;5100148;28;20853;-64
2021/08/14 02:55:38;;;;;;;5.77;5.00;;;22.10;98.50;;;;;;5104604;28;20472;-65
2021/08/14 02:58:04;;;;;;;6.53;5.87;;;22.10;98.50;;;;;;5111576;27;20476;-64
2021/08/14 03:00:31;;;;;;;6.10;5.10;;;22.10;98.40;;;;;;5100975;28;20525;-64
2021/08/14 03:02:58;;;;;;;6.63;6.00;;;22.10;98.50;;;;;;5109721;28;20456;-63
2021/08/14 03:05:24;;;;;;;4.80;4.50;;;22.10;98.50;;;;;;5108860;28;20518;-64
2021/08/14 03:07:51;;;;;;;7.57;5.10;;;22.10;98.50;;;;;;5104539;28;20985;-64
2021/08/14 03:10:19;;;;;;;6.43;5.50;;;22.10;98.50;;;;;;5108613;28;20542;-65
2021/08/14 03:12:45;;;;;;;5.87;5.30;;;22.10;98.50;;;;;;5109472;28;20472;-64
2021/08/14 03:15:12;;;;;;;6.30;5.70;;;22.10;98.50;;;;;;5105258;27;20526;-64
2021/08/14 03:17:39;;;;;;;5.60;5.10;;;22.10;98.50;;;;;;5103501;28;20468;-64
2021/08/14 03:20:08;;;;;;;7.00;5.23;;;22.00;98.40;;;;;;5106458;27;20974;-65
2021/08/14 03:22:35;;;;;;;5.87;5.27;;;22.00;98.40;;;;;;5103927;27;20514;-65
2021/08/14 03:25:01;;;;;;;6.93;6.23;;;22.00;98.40;;;;;;5102970;28;20954;-64
2021/08/14 03:27:29;;;;;;;7.10;5.90;;;22.00;98.40;;;;;;5111724;28;20465;-64
2021/08/14 03:29:56;;;;;;;6.47;5.80;;;22.00;98.40;;;;;;5106912;28;20468;-64
2021/08/14 03:32:23;;;;;;;6.23;5.30;;;21.90;98.40;;;;;;5112003;28;20468;-64
2021/08/14 03:34:49;;;;;;;7.37;5.73;;;21.90;98.40;;;;;;5100770;28;20852;-64
2021/08/14 03:37:16;;;;;;;6.43;5.17;;;21.90;98.40;;;;;;5109073;28;20494;-64
2021/08/14 03:39:42;;;;;;;7.73;6.93;;;21.90;98.40;;;;;;5109186;27;20828;-65
2021/08/14 03:42:09;;;;;;;7.80;6.40;;;21.90;98.50;;;;;;5113630;27;20526;-64
2021/08/14 03:44:37;;;;;;;7.27;6.57;;;21.90;98.50;;;;;;5115929;27;20460;-64
2021/08/14 03:47:04;;;;;;;9.47;8.57;;;21.80;98.50;;;;;;5103436;27;20482;-64
2021/08/14 03:49:31;;;;;;;8.10;7.30;;;21.80;98.40;;;;;;5112868;27;20496;-64
2021/08/14 03:51:57;;;;;;;7.67;6.03;;;21.80;98.40;;;;;;5110489;27;20461;-64
2021/08/14 03:54:24;;;;;;;7.70;6.93;;;21.80;98.80;;;;;;5108620;27;20472;-64
2021/08/14 03:56:52;;;;;;;8.40;5.77;;;21.80;98.40;;;;;;5103155;27;20510;-64
2021/08/14 03:59:19;;;;;;;8.03;6.40;;;21.80;98.50;;;;;;5105849;28;20492;-64
2021/08/14 04:01:47;;;;;;;10.03;6.40;;;21.80;98.40;;;;;;5110326;28;20469;-64
2021/08/14 04:04:13;;;;;;;5.43;4.93;;;21.80;98.40;;;;;;5115334;28;20848;-65
2021/08/14 04:06:40;;;;;;;6.90;6.03;;;21.80;98.40;;;;;;5108307;28;20522;-64
2021/08/14 04:09:06;;;;;;;7.43;5.33;;;21.80;98.40;;;;;;5112438;28;20469;-64
2021/08/14 04:11:33;;;;;;;6.43;5.70;;;21.80;98.50;;;;;;5102489;28;20942;-64
2021/08/14 04:14:00;;;;;;;9.10;5.07;;;21.70;98.40;;;;;;5111303;27;20933;-64
2021/08/14 04:16:26;;;;;;;7.40;5.13;;;21.80;98.50;;;;;;5105709;27;20468;-64
2021/08/14 04:18:54;;;;;;;5.23;4.60;;;21.80;98.40;;;;;;5109984;28;20464;-64
2021/08/14 04:21:21;;;;;;;5.47;4.10;;;21.70;98.40;;;;;;5110343;28;21051;-64
2021/08/14 04:23:47;;;;;;;9.90;5.00;;;21.70;98.30;;;;;;5110482;28;20473;-64
2021/08/14 04:26:14;;;;;;;7.83;4.90;;;21.80;98.30;;;;;;5115707;28;20517;-64
2021/08/14 04:28:40;;;;;;;5.10;4.30;;;21.80;98.10;;;;;;5101294;28;20525;-65
2021/08/14 04:31:07;;;;;;;6.73;4.60;;;21.70;98.10;;;;;;5103629;28;20473;-64
2021/08/14 04:33:33;;;;;;;8.80;5.10;;;21.70;98.10;;;;;;5112206;27;20464;-64
2021/08/14 04:36:01;;;;;;;7.30;5.67;;;21.70;98.10;;;;;;5114968;27;20541;-64
2021/08/14 04:38:28;;;;;;;6.33;5.30;;;21.70;98.10;;;;;;5105652;28;20488;-64
2021/08/14 04:40:54;;;;;;;7.70;4.90;;;21.70;98.10;;;;;;5110130;27;20469;-64
2021/08/14 04:43:21;;;;;;;6.03;5.07;;;21.70;98.00;;;;;;5111893;28;20468;-64
2021/08/14 04:45:48;;;;;;;6.77;4.63;;;21.70;98.30;;;;;;5114482;27;20894;-64
2021/08/14 04:48:15;;;;;;;6.07;4.67;;;21.70;98.00;;;;;;5106898;28;20472;-64
2021/08/14 04:50:41;;;;;;;5.20;4.53;;;21.70;98.10;;;;;;5107248;27;20537;-64
2021/08/14 04:53:10;;;;;;;8.53;4.90;;;21.70;98.10;;;;;;5102604;28;20514;-65
2021/08/14 04:55:36;;;;;;;7.47;5.13;;;21.60;98.10;;;;;;5107476;28;20984;-64
2021/08/14 04:58:03;;;;;;;6.97;5.13;;;21.70;98.10;;;;;;5114120;27;20472;-64
2021/08/14 05:00:30;;;;;;;5.63;4.53;;;21.70;98.00;;;;;;5112167;27;20456;-63
2021/08/14 05:02:56;;;;;;;4.93;4.43;;;21.60;98.00;;;;;;5112011;27;20464;-65
2021/08/14 05:05:23;;;;;;;5.10;4.23;;;21.60;98.10;;;;;;5112554;27;20525;-64
2021/08/14 05:07:49;;;;;;;8.30;4.77;;;21.70;98.10;;;;;;5112007;27;20533;-64
2021/08/14 05:10:17;;;;;;;9.00;5.27;;;21.70;97.90;;;;;;5112595;27;20530;-64
2021/08/14 05:12:44;;;;;;;9.50;5.40;;;21.70;98.00;;;;;;5112012;27;20469;-64
2021/08/14 05:15:11;;;;;;;8.87;4.63;;;21.70;98.00;;;;;;5112878;27;20449;-64
2021/08/14 05:17:37;;;;;;;5.87;4.10;;;21.60;98.00;;;;;;5113952;27;20464;-64
2021/08/14 05:20:06;;;;;;;8.07;4.67;;;21.60;98.00;;;;;;5114103;27;20525;-64
2021/08/14 05:22:32;;;;;;;5.27;3.70;;;21.60;98.20;;;;;;5114589;27;20468;-64
2021/08/14 05:24:59;;;;;;;6.50;5.10;;;21.60;97.90;;;;;;5114103;27;20502;-63
2021/08/14 05:27:27;;;;;;;5.40;4.90;;;21.60;98.00;;;;;;5114658;27;20460;-64
2021/08/14 05:29:54;;;;;;;5.40;4.07;;;21.60;98.10;;;;;;5114008;27;20464;-64
2021/08/14 05:32:20;;;;;;;9.37;3.70;;;21.60;98.10;;;;;;5114616;27;20540;-64
2021/08/14 05:34:47;;;;;;;5.23;3.87;;;21.60;98.20;;;;;;5113884;27;20529;-64
2021/08/14 05:37:13;;;;;;;5.63;4.40;;;21.60;98.20;;;;;;5114508;27;20468;-64
2021/08/14 05:39:40;;;;;;;6.73;4.23;;;21.70;98.30;;;;;;5114287;27;20502;-64
2021/08/14 05:42:07;;;;;;;6.10;3.60;;;21.70;98.30;;;;;;5113835;27;20513;-64
2021/08/14 05:44:35;;;;;;;6.13;4.20;;;21.70;98.20;;;;;;5114177;27;20522;-64
2021/08/14 05:47:01;;;;;;;7.63;5.30;;;21.70;98.20;;;;;;5113861;27;20465;-64
2021/08/14 05:49:28;;;;;;;7.80;4.67;;;21.80;98.30;;;;;;5113959;27;20525;-64
2021/08/14 05:51:55;;;;;;;5.60;5.10;;;21.80;98.30;;;;;;5113846;27;20775;-64
2021/08/14 05:54:21;;;;;;;4.77;4.00;;;21.80;98.30;;;;;;5114254;27;20529;-64
2021/08/14 05:56:48;;;;;;;5.70;4.70;;;21.80;98.30;;;;;;5122904;27;20524;-65
2021/08/14 05:59:14;;;;;;;7.67;5.17;;;21.90;98.20;;;;;;5133837;27;20474;-65
2021/08/14 06:01:42;;;;;;;7.77;5.20;;;21.90;98.00;;;;;;5134536;27;20462;-65
2021/08/14 06:04:09;;;;;;;7.10;5.40;;;22.00;97.90;;;;;;5134005;27;20467;-65
2021/08/14 06:06:35;;;;;;;4.93;4.20;;;22.10;97.60;;;;;;5134425;27;20505;-65
2021/08/14 06:09:02;;;;;;;7.70;5.20;;;22.20;97.60;;;;;;5133968;27;20862;-64
2021/08/14 06:11:29;;;;;;;10.33;5.37;;;22.30;97.20;;;;;;5134585;27;20460;-64
2021/08/14 06:13:56;;;;;;;11.60;5.97;;;22.40;97.00;;;;;;5133786;27;20464;-65
2021/08/14 06:16:22;;;;;;;5.60;4.53;;;22.50;97.00;;;;;;5134448;27;20520;-65
2021/08/14 06:18:50;;;;;;;11.47;6.00;;;22.60;96.90;;;;;;5133693;27;20988;-65
2021/08/14 06:21:17;;;;;;;7.87;5.43;;;22.60;96.60;;;;;;5134352;27;20832;-65
2021/08/14 06:23:43;;;;;;;7.93;5.80;;;22.70;96.70;;;;;;5134142;27;20472;-65
2021/08/14 06:26:10;;;;;;;7.50;5.13;;;22.80;96.60;;;;;;5122174;27;20528;-65
2021/08/14 06:28:37;;;;;;;7.87;5.90;;;22.80;96.40;;;;;;5113371;27;20966;-65
2021/08/14 06:31:03;;;;;;;7.17;4.30;;;22.90;96.10;;;;;;5113002;27;20588;-65
2021/08/14 06:33:30;;;;;;;7.20;4.60;;;23.00;96.00;;;;;;5113536;27;20461;-64
2021/08/14 06:35:58;;;;;;;7.33;5.23;;;23.00;96.00;;;;;;5113119;27;20537;-64
2021/08/14 06:38:25;;;;;;;9.00;5.40;;;23.00;96.00;;;;;;5113334;27;20472;-64
2021/08/14 06:40:51;;;;;;;7.80;5.20;;;23.00;96.00;;;;;;5113093;27;20959;-64
2021/08/14 06:43:18;;;;;;;7.07;5.47;;;23.10;95.90;;;;;;5113282;27;20533;-64
2021/08/14 06:45:44;;;;;;;8.30;5.07;;;23.10;95.90;;;;;;5113250;27;20798;-64
2021/08/14 06:48:11;;;;;;;7.73;5.73;;;23.10;95.90;;;;;;5112740;27;20456;-65
2021/08/14 06:50:38;;;;;;;9.10;5.30;;;23.20;95.90;;;;;;5113327;27;20464;-64
2021/08/14 06:53:06;;;;;;;15.63;5.40;;;23.30;95.90;;;;;;5112810;27;20853;-65
2021/08/14 06:55:32;;;;;;;5.90;4.53;;;23.30;95.70;;;;;;5113062;27;20524;-64
2021/08/14 06:57:59;;;;;;;5.70;4.33;;;23.40;95.50;;;;;;5131915;27;20863;-64
2021/08/14 07:00:25;;;;;;;10.13;6.30;;;23.50;95.40;;;;;;5133683;27;20452;-64
2021/08/14 07:02:53;;;;;;;6.17;4.70;;;23.50;95.00;;;;;;5133151;27;20471;-65
2021/08/14 07:05:19;;;;;;;9.63;4.57;;;23.60;95.00;;;;;;5133843;27;20542;-65
2021/08/14 07:07:46;;;;;;;6.90;4.43;;;23.50;94.90;;;;;;5133658;27;20468;-65
2021/08/14 07:10:14;;;;;;;5.63;4.40;;;23.60;94.90;;;;;;5136263;27;20459;-65
2021/08/14 07:12:43;;;;;;;9.33;4.80;;;23.60;94.90;;;;;;5137838;27;20467;-66
2021/08/14 07:15:10;;;;;;;5.53;4.10;;;23.60;94.70;;;;;;5137218;27;20474;-64
2021/08/14 07:17:37;;;;;;;6.00;4.40;;;23.60;94.70;;;;;;5137778;27;20957;-64
2021/08/14 07:20:04;;;;;;;6.47;4.17;;;23.70;94.20;;;;;;5137327;27;20528;-65
2021/08/14 07:22:30;;;;;;;5.93;5.00;;;23.70;94.20;;;;;;5137649;27;20581;-65
2021/08/14 07:24:57;;;;;;;4.87;4.10;;;23.80;94.10;;;;;;5136110;27;20516;-65
2021/08/14 07:27:25;;;;;;;5.20;4.17;;;23.80;94.00;;;;;;5117101;27;20467;-64
2021/08/14 07:29:52;;;;;;;5.63;4.80;;;23.80;93.90;;;;;;5116254;27;20464;-65
2021/08/14 07:32:19;;;;;;;10.00;4.20;;;23.80;93.70;;;;;;5116882;27;20806;-65
2021/08/14 07:34:45;;;;;;;6.20;4.20;;;23.80;93.70;;;;;;5117064;27;20468;-65
2021/08/14 07:37:12;;;;;;;5.10;3.67;;;23.80;93.70;;;;;;5116128;27;20517;-65
2021/08/14 07:39:38;;;;;;;4.60;3.93;;;23.90;93.70;;;;;;5116303;27;20869;-64
2021/08/14 07:42:05;;;;;;;6.87;4.07;;;23.90;93.80;;;;;;5115043;27;20521;-65
2021/08/14 07:44:33;;;;;;;9.30;4.50;;;23.90;93.40;;;;;;5116411;27;20460;-64
2021/08/14 07:46:59;;;;;;;4.80;3.80;;;24.00;93.20;;;;;;5116409;27;20832;-65
2021/08/14 07:49:26;;;;;;;6.83;4.53;;;24.10;92.90;;;;;;5116428;27;20481;-65
2021/08/14 07:51:53;;;;;;;9.80;4.50;;;24.20;92.90;;;;;;5116097;27;20863;-65
2021/08/14 07:54:19;;;;;;;8.57;4.37;;;24.30;92.70;;;;;;5116710;27;20525;-65
2021/08/14 07:56:46;;;;;;;7.47;4.53;;;24.30;92.50;;;;;;5125165;27;20463;-65
2021/08/14 07:59:12;;;;;;;5.90;3.60;;;24.30;92.40;;;;;;5136318;27;20523;-65
2021/08/14 08:01:40;;;;;;;5.40;3.57;;;24.40;92.40;;;;;;5134912;27;20536;-65
2021/08/14 08:04:07;;;;;;;9.43;4.37;;;24.50;92.30;;;;;;5115739;27;20468;-65
2021/08/14 08:06:33;;;;;;;5.07;3.93;;;24.50;92.00;;;;;;5116260;27;20525;-65
2021/08/14 08:09:00;;;;;;;10.33;4.80;;;24.50;92.00;;;;;;5115548;27;20472;-65
2021/08/14 08:11:26;;;;;;;6.03;3.00;;;24.60;92.10;;;;;;5116176;27;20457;-65
2021/08/14 08:13:53;;;;;;;7.10;3.73;;;24.70;92.00;;;;;;5115974;27;20521;-64
2021/08/14 08:16:20;;;;;;;6.43;3.90;;;24.80;91.70;;;;;;5115882;27;20875;-63
2021/08/14 08:18:48;;;;;;;7.00;3.73;;;24.90;91.70;;;;;;5115851;27;20468;-65
2021/08/14 08:21:14;;;;;;;3.70;3.40;;;24.90;91.70;;;;;;5114956;27;20452;-65
2021/08/14 08:23:41;;;;;;;7.27;3.73;;;25.00;91.30;;;;;;5115908;27;20837;-65
2021/08/14 08:26:07;;;;;;;5.33;4.10;;;25.10;91.10;;;;;;5115399;27;20537;-65
2021/08/14 08:28:34;;;;;;;10.60;4.30;;;25.20;90.80;;;;;;5115747;27;20476;-66
2021/08/14 08:31:01;;;;;;;6.73;3.80;;;25.20;90.60;;;;;;5115245;27;20783;-65
2021/08/14 08:33:27;;;;;;;4.57;3.27;;;25.20;90.80;;;;;;5115771;27;20513;-65
2021/08/14 08:35:55;;;;;;;6.00;4.00;;;25.30;90.80;;;;;;5115741;27;20864;-65
2021/08/14 08:38:22;;;;;;;5.90;3.80;;;25.30;90.50;;;;;;5115061;27;20521;-65
2021/08/14 08:40:49;;;;;;;3.57;3.27;;;25.40;90.30;;;;;;5115483;27;20460;-65
2021/08/14 08:43:16;;;;;;;7.23;4.67;;;25.40;90.40;;;;;;5114880;27;20464;-64
2021/08/14 08:45:45;;;;;;;6.70;4.17;;;25.50;88.60;;;;;;5115442;27;20472;-64
2021/08/14 08:48:17;;;;;;;5.17;4.20;;;25.60;88.80;;;;;;5114856;27;20549;-65
2021/08/14 08:50:46;;;;;;;6.30;4.00;;;25.60;88.40;;;;;;5115297;27;20525;-65
2021/08/14 08:53:14;;;;;;;7.90;4.53;;;25.60;88.10;;;;;;5114777;27;20464;-65
2021/08/14 08:55:42;;;;;;;5.07;3.93;;;25.60;88.20;;;;;;5115277;27;20460;-66
2021/08/14 08:58:09;;;;;;;5.03;3.27;;;25.60;88.40;;;;;;5094252;28;20474;-65
2021/08/14 09:00:35;;;;;;;4.70;3.30;;;25.60;88.50;;;;;;5094710;28;20466;-65
2021/08/14 09:03:11;;;;;;;3.40;3.10;;;25.60;88.30;;;;;;5107775;27;20496;-65
2021/08/14 09:05:46;;;;;;;4.80;3.43;;;25.60;88.00;;;;;;5115333;27;20456;-64
2021/08/14 09:08:15;;;;;;;6.90;3.47;;;25.60;87.10;;;;;;5114495;27;20468;-65
2021/08/14 09:10:42;;;;;;;5.13;3.83;;;25.60;86.10;;;;;;5115045;27;20533;-66
2021/08/14 09:13:14;;;;;;;6.00;3.70;;;25.60;87.10;;;;;;5114536;27;20460;-64
2021/08/14 09:15:40;;;;;;;6.57;4.77;;;25.50;86.30;;;;;;5114976;27;20525;-64
2021/08/14 09:18:09;;;;;;;8.17;4.30;;;25.50;86.00;;;;;;5114236;27;20468;-65
2021/08/14 09:20:47;;;;;;;7.43;4.03;;;25.50;86.20;;;;;;5114888;27;20468;-64
2021/08/14 09:23:16;;;;;;;4.93;3.57;;;25.50;86.50;;;;;;5114290;27;20472;-65
2021/08/14 09:25:44;;;;;;;5.53;3.10;;;25.50;86.30;;;;;;5114481;27;20962;-64
2021/08/14 09:28:13;;;;;;;7.03;3.40;;;25.60;86.40;;;;;;5114119;27;20481;-65
2021/08/14 09:30:52;;;;;;;7.47;3.93;;;25.60;86.00;;;;;;5114531;27;20498;-63
2021/08/14 09:33:22;;;;;;;5.30;3.20;;;25.60;86.30;;;;;;5113080;27;20460;-64
2021/08/14 09:35:55;;;;;;;4.27;3.33;;;25.60;86.10;;;;;;5114383;27;20476;-65
2021/08/14 09:38:24;;;;;;;4.70;3.43;;;25.70;85.70;;;;;;5113956;27;20464;-64
2021/08/14 09:40:50;;;;;;;4.00;3.53;;;25.80;87.20;;;;;;5114285;27;20519;-65
2021/08/14 09:43:33;;;;;;;6.83;3.80;;;25.80;85.70;;;;;;5113818;27;20465;-64
2021/08/14 09:46:00;;;;;;;3.93;3.40;;;25.80;85.20;;;;;;5114248;27;20504;-64
2021/08/14 09:48:28;;;;;;;3.87;2.83;;;25.80;84.80;;;;;;5113423;27;20517;-64
2021/08/14 09:50:54;;;;;;;7.00;3.73;;;25.80;84.10;;;;;;5114004;27;21037;-64
2021/08/14 09:53:30;;;;;;;7.10;3.43;;;25.90;85.50;;;;;;5095853;27;20533;-63
2021/08/14 09:56:08;;;;;;;5.20;3.80;;;25.90;84.70;;;;;;5068559;28;20458;-65
2021/08/14 09:58:36;;;;;;;4.57;3.57;;;25.90;84.50;;;;;;5060675;28;20530;-64
2021/08/14 10:01:04;;;;;;;8.10;4.10;;;25.80;90.30;;;;;;5043281;28;20526;-65
2021/08/14 10:03:31;;;;;;;5.23;4.17;;;25.70;90.40;;;;;;5040411;28;20458;-65
2021/08/14 10:05:59;;;;;;;5.70;3.40;;;25.70;90.20;;;;;;5049242;28;20497;-64
2021/08/14 10:08:26;;;;;;;7.10;6.33;;;25.60;88.80;;;;;;5034600;28;20484;-64
2021/08/14 10:10:54;;;;;;;18.40;16.70;;;25.50;88.30;;;;;;5044868;28;20487;-65
2021/08/14 10:13:21;;;;;;;18.93;16.40;;;25.50;88.10;;;;;;5048537;28;20467;-64
2021/08/14 10:15:49;;;;;;;18.53;16.63;;;25.40;86.00;;;;;;5044988;28;20468;-65
2021/08/14 10:18:17;;;;;;;25.53;23.20;;;25.40;85.50;;;;;;5048991;28;21050;-64
2021/08/14 10:20:43;;;;;;;23.30;21.10;;;25.30;86.70;;;;;;5049663;28;20469;-65
2021/08/14 10:23:12;;;;;;;17.80;16.00;;;25.30;86.90;;;;;;5049483;28;20818;-65
2021/08/14 10:25:42;;;;;;;13.03;11.50;;;25.30;86.70;;;;;;5049023;28;20460;-64
2021/08/14 10:28:10;;;;;;;7.33;6.53;;;25.20;86.10;;;;;;5049341;28;20471;-65
2021/08/14 10:30:39;;;;;;;10.40;9.20;;;25.30;84.50;;;;;;5043172;28;20524;-65
2021/08/14 10:33:06;;;;;;;22.50;20.17;;;25.20;86.00;;;;;;5045488;28;20776;-65
2021/08/14 10:35:39;;;;;;;41.10;37.33;;;25.30;86.00;;;;;;5048757;28;20459;-64
2021/08/14 10:38:38;;;;;;;36.00;32.47;;;25.20;85.70;;;;;;5034886;28;20498;-66
2021/08/14 10:41:05;;;;;;;21.67;18.27;;;25.20;85.70;;;;;;5059446;28;20800;-64
2021/08/14 10:44:00;;;;;;;15.73;14.23;;;25.10;85.60;;;;;;5049093;28;20841;-65
2021/08/14 10:46:41;;;;;;;38.87;34.77;;;25.10;86.00;;;;;;5049067;28;20457;-64
2021/08/14 10:49:09;;;;;;;36.40;32.50;;;25.10;86.10;;;;;;5048558;28;20467;-64
2021/08/14 10:52:10;;;;;;;38.07;33.97;;;25.10;86.20;;;;;;5048660;28;20865;-64
2021/08/14 10:55:12;;;;;;;19.40;17.37;;;25.10;86.50;;;;;;5057025;28;21355;-64
2021/08/14 10:57:40;;;;;;;17.47;15.17;;;25.10;86.30;;;;;;5042360;28;20525;-65
2021/08/14 11:00:14;;;;;;;15.53;13.77;;;25.10;86.10;;;;;;5038268;28;20513;-64
2021/08/14 11:03:01;;;;;;;16.90;15.30;;;25.10;86.20;;;;;;5047152;28;20462;-65
2021/08/14 11:05:28;;;;;;;14.27;12.77;;;25.10;85.90;;;;;;5034594;28;20510;-65
2021/08/14 11:07:55;;;;;;;10.60;9.70;;;25.20;86.00;;;;;;5035432;28;20467;-65
2021/08/14 11:10:36;;;;;;;10.90;9.60;;;25.40;86.00;;;;;;5034784;28;20464;-66
2021/08/14 11:13:03;;;;;;;12.30;10.40;;;25.50;85.80;;;;;;5035401;28;20491;-65
2021/08/14 11:15:38;;;;;;;8.13;7.33;;;25.60;85.70;;;;;;5034834;28;20798;-65
2021/08/14 11:18:05;;;;;;;6.33;5.63;;;25.80;83.80;;;;;;5035328;28;20490;-65
2021/08/14 11:20:38;;;;;;;5.40;3.80;;;25.90;83.70;;;;;;5034851;28;20529;-64
2021/08/14 11:23:22;;;;;;;5.30;4.80;;;26.00;83.00;;;;;;5035481;28;20472;-65
2021/08/14 11:25:50;;;;;;;6.33;5.73;;;26.10;82.60;;;;;;5034895;28;20454;-65
2021/08/14 11:28:20;;;;;;;5.00;3.60;;;26.20;81.90;;;;;;5035205;28;20537;-65
2021/08/14 11:30:50;;;;;;;5.57;4.77;;;26.20;79.70;;;;;;5030209;28;20461;-65
2021/08/14 11:33:22;;;;;;;6.93;4.67;;;26.30;80.00;;;;;;5015185;28;20784;-63
2021/08/14 11:35:48;;;;;;;9.20;4.90;;;26.30;81.00;;;;;;5032401;28;20797;-64
2021/08/14 11:38:15;;;;;;;8.20;7.40;;;26.30;79.70;;;;;;5015147;28;20461;-65
2021/08/14 11:40:44;;;;;;;14.57;13.20;;;26.40;81.00;;;;;;5019703;28;20530;-64
2021/08/14 11:43:13;;;;;;;13.60;11.50;;;26.30;83.10;;;;;;5017558;28;20469;-63
2021/08/14 11:45:41;;;;;;;12.60;11.20;;;26.20;82.00;;;;;;5022747;28;20530;-64
2021/08/14 11:48:10;;;;;;;11.30;10.10;;;26.10;84.00;;;;;;5032362;28;20480;-64
2021/08/14 11:50:40;;;;;;;10.80;7.93;;;26.00;83.90;;;;;;5023325;28;20526;-65
2021/08/14 11:53:08;;;;;;;8.90;8.00;;;25.90;83.00;;;;;;5034315;28;21001;-65
2021/08/14 11:55:35;;;;;;;12.03;10.70;;;25.80;82.70;;;;;;5034031;28;20530;-64
2021/08/14 11:58:02;;;;;;;21.50;19.40;;;25.80;80.50;;;;;;5025784;28;20515;-64
2021/08/14 12:00:31;;;;;;;30.90;28.07;;;25.70;81.80;;;;;;5029202;28;20472;-64
2021/08/14 12:03:06;;;;;;;34.27;31.17;;;25.60;81.60;;;;;;5034286;28;20833;-63
2021/08/14 12:05:33;;;;;;;26.23;23.73;;;25.60;81.20;;;;;;5032383;28;20507;-65
2021/08/14 12:08:00;;;;;;;12.87;11.67;;;25.40;80.90;;;;;;5034317;28;20475;-64
2021/08/14 12:10:27;;;;;;;10.43;9.43;;;25.40;80.00;;;;;;5034077;28;20526;-64
2021/08/14 12:12:58;;;;;;;8.00;6.40;;;25.40;79.40;;;;;;5033974;28;20461;-64
2021/08/14 12:15:37;;;;;;;7.10;4.80;;;25.30;79.50;;;;;;5033133;28;20892;-65
2021/08/14 12:18:04;;;;;;;4.27;3.60;;;25.30;79.40;;;;;;5032669;28;20460;-64
2021/08/14 12:20:32;;;;;;;3.73;3.20;;;25.40;78.80;;;;;;5033844;28;20468;-64
2021/08/14 12:23:24;;;;;;;4.37;3.97;;;25.40;77.30;;;;;;5033766;28;20472;-64
2021/08/14 12:25:52;;;;;;;4.27;3.40;;;25.60;78.00;;;;;;5033354;28;20522;-64
2021/08/14 12:28:20;;;;;;;3.40;3.10;;;25.70;76.90;;;;;;5033930;28;20993;-64
2021/08/14 12:30:47;;;;;;;4.03;3.57;;;25.80;77.20;;;;;;5033585;28;21317;-64
2021/08/14 12:33:29;;;;;;;3.97;3.50;;;25.90;76.30;;;;;;5033838;28;20460;-65
2021/08/14 12:36:01;;;;;;;4.43;3.90;;;26.00;76.10;;;;;;5033606;28;20479;-65
2021/08/14 12:38:29;;;;;;;4.73;3.77;;;26.00;76.60;;;;;;5033846;28;20476;-65
2021/08/14 12:40:56;;;;;;;3.30;3.00;;;26.10;77.00;;;;;;5033009;28;20529;-65
2021/08/14 12:43:24;;;;;;;4.53;3.40;;;26.20;77.20;;;;;;5033673;28;20498;-65
2021/08/14 12:45:52;;;;;;;4.47;4.07;;;26.20;77.20;;;;;;5033146;28;20479;-65
2021/08/14 12:48:19;;;;;;;7.10;4.70;;;26.30;75.40;;;;;;5033704;28;20530;-65